Time;durP1;ratioP1;P1;durP2;ratioP2;P2;SDS_P1;SDS_P2;PMS_P1;PMS_P2;Temp;Humidity;BMP_temperature;BMP_pressure;BME280_temperature;BME280_humidity;BME280_pressure;Samples;Min_cycle;Max_cycle;Signal;HPM_P1;HPM_P2
2022/07/15 00:01:56;;;;;;;6.30;1.50;;;;;;;18.79;49.71;100002.09;104243;1277;95319;-71
2022/07/15 00:04:24;;;;;;;6.30;1.40;;;;;;;18.74;49.98;100005.69;104321;1274;110210;-72
2022/07/15 00:06:52;;;;;;;6.60;1.40;;;;;;;18.70;50.15;100010.85;104290;1274;138441;-72
2022/07/15 00:09:20;;;;;;;6.40;1.60;;;;;;;18.65;50.22;100013.48;104316;1277;108726;-72
2022/07/15 00:11:47;;;;;;;6.10;1.20;;;;;;;18.62;50.27;100013.69;104219;1277;138425;-72
2022/07/15 00:14:15;;;;;;;6.00;1.30;;;;;;;18.60;50.31;100013.07;104283;1277;95868;-73
2022/07/15 00:16:43;;;;;;;6.70;1.70;;;;;;;18.61;50.24;100013.02;104341;1277;110120;-72
2022/07/15 00:19:11;;;;;;;6.10;1.50;;;;;;;18.60;50.37;100012.37;104191;1276;138306;-72
2022/07/15 00:21:39;;;;;;;6.20;1.20;;;;;;;18.57;50.53;100014.35;104286;1277;108769;-72
2022/07/15 00:24:06;;;;;;;5.10;1.20;;;;;;;18.52;50.59;100017.77;104141;1277;138253;-73
2022/07/15 00:26:36;;;;;;;5.00;1.30;;;;;;;18.49;50.72;100020.98;104346;1277;95228;-72
2022/07/15 00:29:04;;;;;;;5.80;1.30;;;;;;;18.44;51.03;100021.31;104229;1277;138629;-72
2022/07/15 00:31:32;;;;;;;6.20;1.40;;;;;;;18.43;51.01;100017.11;104336;1277;99500;-73
2022/07/15 00:34:00;;;;;;;5.10;1.50;;;;;;;18.40;51.29;100018.03;104285;1277;108881;-72
2022/07/15 00:36:29;;;;;;;6.30;1.30;;;;;;;18.36;51.32;100018.41;104172;1276;139000;-72
2022/07/15 00:38:57;;;;;;;6.00;1.40;;;;;;;18.33;51.35;100020.63;104308;1274;94357;-72
2022/07/15 00:41:25;;;;;;;6.50;1.50;;;;;;;18.30;51.54;100021.52;104203;1277;138811;-72
2022/07/15 00:43:53;;;;;;;6.80;1.50;;;;;;;18.27;51.61;100022.63;104286;1277;99587;-72
2022/07/15 00:46:21;;;;;;;5.30;1.30;;;;;;;18.24;51.73;100030.89;104165;1277;108874;-73
2022/07/15 00:48:49;;;;;;;6.20;1.40;;;;;;;18.27;51.70;100029.45;103989;1277;138245;-72
2022/07/15 00:51:17;;;;;;;5.70;1.60;;;;;;;18.31;51.67;100026.69;104245;1277;95417;-73
2022/07/15 00:53:48;;;;;;;6.10;1.40;;;;;;;18.31;51.83;100025.41;104092;1277;138456;-72
2022/07/15 00:56:17;;;;;;;5.80;1.30;;;;;;;18.25;51.87;100033.38;104339;1277;98365;-71
2022/07/15 00:58:48;;;;;;;6.50;1.30;;;;;;;18.23;51.98;100036.52;104160;1277;108777;-72
2022/07/15 01:01:19;;;;;;;7.90;1.60;;;;;;;18.20;51.96;100034.55;104309;1276;138610;-73
2022/07/15 01:03:48;;;;;;;5.70;1.40;;;;;;;18.18;52.09;100029.66;104310;1277;95187;-72
2022/07/15 01:06:16;;;;;;;5.20;1.20;;;;;;;18.19;52.15;100024.57;104349;1277;138182;-73
2022/07/15 01:08:44;;;;;;;6.80;1.30;;;;;;;18.19;52.27;100023.46;104104;1277;98491;-73
2022/07/15 01:11:13;;;;;;;6.50;1.20;;;;;;;18.20;51.92;100018.75;104201;1277;138094;-74
2022/07/15 01:13:42;;;;;;;6.10;1.30;;;;;;;18.24;51.92;100018.50;104279;1276;95781;-73
2022/07/15 01:16:10;;;;;;;6.00;1.50;;;;;;;18.23;52.09;100016.40;104080;1277;95628;-73
2022/07/15 01:18:38;;;;;;;6.40;1.50;;;;;;;18.23;52.13;100020.88;103926;1277;138111;-73
2022/07/15 01:21:07;;;;;;;4.80;1.10;;;;;;;18.24;52.15;100019.90;104199;1277;99331;-73
2022/07/15 01:23:42;;;;;;;6.00;1.30;;;;;;;18.24;52.27;100018.34;104580;1277;138702;-73
2022/07/15 01:26:16;;;;;;;4.80;1.30;;;;;;;18.21;52.39;100014.02;104248;1276;95255;-73
2022/07/15 01:28:45;;;;;;;5.80;1.30;;;;;;;18.16;52.34;100022.76;104113;1277;95310;-73
2022/07/15 01:31:13;;;;;;;5.00;1.00;;;;;;;18.15;52.43;100018.14;104053;1277;138144;-72
2022/07/15 01:33:43;;;;;;;6.00;1.40;;;;;;;18.17;52.38;100010.13;104334;1277;99448;-72
2022/07/15 01:36:11;;;;;;;6.70;1.50;;;;;;;18.16;52.51;100013.11;103999;1277;138201;-73
2022/07/15 01:38:42;;;;;;;5.20;1.40;;;;;;;18.13;52.51;100013.44;104237;1277;95227;-73
2022/07/15 01:41:22;;;;;;;5.00;1.30;;;;;;;18.12;52.62;100015.46;103978;1277;138312;-73
2022/07/15 01:43:50;;;;;;;3.90;1.00;;;;;;;18.00;52.99;100018.95;104339;1275;109699;-72
2022/07/15 01:46:18;;;;;;;4.90;1.10;;;;;;;17.73;53.61;100028.85;104210;1276;99913;-73
2022/07/15 01:51:55;;;;;;;5.00;0.90;;;;;;;17.28;54.79;100023.66;104401;1277;95108;-73
2022/07/15 01:54:24;;;;;;;5.10;1.20;;;;;;;17.11;55.09;100025.04;104099;1277;137990;-72
2022/07/15 01:56:53;;;;;;;8.20;1.10;;;;;;;16.97;55.48;100023.92;104339;1277;107934;-73
2022/07/15 01:59:24;;;;;;;4.70;1.10;;;;;;;16.85;55.91;100025.32;104455;1277;138462;-73
2022/07/15 02:01:53;;;;;;;;;;;;;;;16.72;56.31;100027.13;104352;1277;108864;-73
2022/07/15 02:04:22;;;;;;;5.90;1.20;;;;;;;16.61;56.84;100028.30;104168;1277;95091;-72
2022/07/15 02:06:50;;;;;;;4.40;1.10;;;;;;;16.51;57.10;100025.80;104245;1277;138272;-74
2022/07/15 02:09:20;;;;;;;4.10;0.90;;;;;;;16.43;57.29;100025.88;104373;1275;109742;-73
2022/07/15 02:11:51;;;;;;;5.80;1.40;;;;;;;16.34;57.58;100027.83;104312;1277;138234;-73
2022/07/15 02:14:21;;;;;;;7.10;1.40;;;;;;;16.27;57.83;100030.22;104341;1277;109296;-72
2022/07/15 02:16:51;;;;;;;3.80;1.10;;;;;;;16.21;58.07;100033.77;104430;1276;95220;-73
2022/07/15 02:19:27;;;;;;;5.20;1.20;;;;;;;16.13;58.33;100040.31;104276;1277;95133;-73
2022/07/15 02:21:56;;;;;;;3.40;0.90;;;;;;;16.03;58.52;100044.23;104327;1276;109746;-72
2022/07/15 02:24:24;;;;;;;3.50;1.00;;;;;;;15.97;58.83;100042.41;104253;1276;138319;-72
2022/07/15 02:26:52;;;;;;;7.10;1.50;;;;;;;15.91;59.02;100034.14;104427;1274;108875;-72
2022/07/15 02:29:20;;;;;;;4.70;1.20;;;;;;;15.87;59.10;100035.80;104124;1277;138461;-72
2022/07/15 02:31:48;;;;;;;5.40;1.50;;;;;;;15.83;59.24;100040.09;104285;1277;95264;-73
2022/07/15 02:34:16;;;;;;;5.30;1.50;;;;;;;15.82;59.24;100042.12;104431;1277;109651;-73
2022/07/15 02:36:44;;;;;;;4.60;1.20;;;;;;;15.79;59.55;100040.83;104245;1277;138448;-73
2022/07/15 02:39:12;;;;;;;5.00;1.20;;;;;;;15.76;59.57;100046.75;104392;1277;108743;-73
2022/07/15 02:41:41;;;;;;;5.30;1.40;;;;;;;15.72;59.82;100049.42;104397;1277;138397;-73
2022/07/15 02:44:11;;;;;;;6.40;1.30;;;;;;;15.67;59.93;100056.36;104446;1276;95239;-71
2022/07/15 02:46:40;;;;;;;5.80;0.90;;;;;;;15.65;60.10;100060.04;104562;1277;109948;-72
2022/07/15 02:49:10;;;;;;;6.10;1.60;;;;;;;15.65;60.12;100060.21;104344;1277;139057;-73
2022/07/15 02:51:39;;;;;;;4.70;1.30;;;;;;;15.64;60.53;100060.60;104615;1277;109083;-72
2022/07/15 02:54:07;;;;;;;7.00;1.50;;;;;;;15.64;60.65;100063.30;104457;1277;138469;-71
2022/07/15 02:56:35;;;;;;;7.40;1.30;;;;;;;15.62;60.94;100063.56;104468;1277;96780;-72
2022/07/15 02:59:03;;;;;;;4.70;1.40;;;;;;;15.60;60.70;100060.46;104542;1277;138068;-72
2022/07/15 03:01:32;;;;;;;4.60;1.10;;;;;;;15.60;60.87;100065.84;104595;1277;98579;-72
2022/07/15 03:04:00;;;;;;;7.30;1.50;;;;;;;15.59;60.78;100067.88;104456;1277;108863;-72
2022/07/15 03:06:28;;;;;;;4.30;1.10;;;;;;;15.59;60.69;100065.91;104497;1277;138274;-72
2022/07/15 03:08:56;;;;;;;3.90;1.10;;;;;;;15.58;60.69;100068.80;104490;1277;95143;-72
2022/07/15 03:11:24;;;;;;;5.10;1.10;;;;;;;15.56;60.89;100066.95;104259;1277;138256;-73
2022/07/15 03:13:52;;;;;;;5.20;1.20;;;;;;;15.52;61.36;100071.92;104558;1277;99421;-73
2022/07/15 03:16:21;;;;;;;6.90;1.20;;;;;;;15.46;61.62;100068.67;104334;1277;107996;-73
2022/07/15 03:18:50;;;;;;;4.90;1.30;;;;;;;15.43;61.61;100072.82;104303;1277;138208;-72
2022/07/15 03:21:19;;;;;;;5.00;1.10;;;;;;;15.41;61.44;100075.59;104386;1277;95165;-73
2022/07/15 03:23:49;;;;;;;5.70;1.00;;;;;;;15.41;61.27;100072.55;104365;1277;138141;-73
2022/07/15 03:26:18;;;;;;;6.90;1.40;;;;;;;15.38;61.65;100070.89;104483;1277;99433;-72
2022/07/15 03:28:46;;;;;;;4.40;1.00;;;;;;;15.33;61.84;100077.05;104342;1277;108834;-72
2022/07/15 03:31:14;;;;;;;6.80;1.80;;;;;;;15.33;61.77;100082.77;104223;1277;138777;-73
2022/07/15 03:33:43;;;;;;;5.10;1.20;;;;;;;15.37;61.73;100087.04;104344;1275;95232;-73
2022/07/15 03:36:17;;;;;;;6.20;1.00;;;;;;;15.42;61.58;100083.95;104394;1274;139960;-73
2022/07/15 03:38:45;;;;;;;4.00;1.30;;;;;;;15.45;61.89;100083.05;104462;1277;99340;-73
2022/07/15 03:41:14;;;;;;;5.30;1.10;;;;;;;15.43;62.51;100078.16;104387;1277;138560;-73
2022/07/15 03:43:44;;;;;;;4.80;1.10;;;;;;;15.35;63.00;100077.10;104287;1277;96210;-73
2022/07/15 03:46:15;;;;;;;5.00;1.30;;;;;;;15.34;62.66;100080.94;104314;1277;96685;-72
2022/07/15 03:48:46;;;;;;;4.90;1.20;;;;;;;15.41;61.99;100079.52;104436;1277;138055;-73
2022/07/15 03:51:15;;;;;;;6.10;1.40;;;;;;;15.46;62.18;100081.60;104443;1277;98464;-73
2022/07/15 03:53:44;;;;;;;4.10;1.00;;;;;;;15.49;61.79;100086.59;104239;1277;138542;-73
2022/07/15 03:56:12;;;;;;;6.60;1.10;;;;;;;15.54;61.83;100086.37;104356;1277;95232;-72
2022/07/15 03:58:40;;;;;;;3.50;0.80;;;;;;;15.55;62.09;100082.55;104433;1277;95163;-72
2022/07/15 04:01:07;;;;;;;6.20;1.50;;;;;;;15.52;61.91;100074.12;104303;1277;138064;-73
2022/07/15 04:03:36;;;;;;;5.20;1.10;;;;;;;15.52;61.37;100075.17;104389;1277;98315;-72
2022/07/15 04:06:04;;;;;;;6.60;1.10;;;;;;;15.55;61.30;100072.73;104279;1277;140953;-72
2022/07/15 04:08:32;;;;;;;7.00;1.30;;;;;;;15.60;60.88;100078.73;104390;1277;95251;-72
2022/07/15 04:11:00;;;;;;;5.10;1.10;;;;;;;15.63;60.71;100080.52;104332;1277;138437;-72
2022/07/15 04:13:29;;;;;;;4.40;1.30;;;;;;;15.66;60.38;100083.92;104297;1277;109933;-72
2022/07/15 04:15:57;;;;;;;5.30;1.00;;;;;;;15.69;60.20;100087.20;104393;1277;99445;-73
2022/07/15 04:18:25;;;;;;;5.60;1.20;;;;;;;15.71;60.24;100089.40;104186;1277;138826;-73
2022/07/15 04:21:01;;;;;;;6.20;1.20;;;;;;;15.75;60.28;100095.83;104332;1277;95302;-72
2022/07/15 04:23:30;;;;;;;4.40;0.80;;;;;;;15.79;60.27;100092.39;104284;1277;138706;-72
2022/07/15 04:25:58;;;;;;;4.50;1.10;;;;;;;15.82;60.25;100088.16;104382;1277;109397;-72
2022/07/15 04:28:26;;;;;;;4.30;1.50;;;;;;;15.83;60.23;100085.94;104349;1277;101784;-72
2022/07/15 04:30:54;;;;;;;6.40;1.10;;;;;;;15.85;59.99;100087.80;104158;1277;138932;-72
2022/07/15 04:33:23;;;;;;;5.10;0.90;;;;;;;15.88;59.87;100092.86;104297;1277;95243;-73
2022/07/15 04:35:51;;;;;;;4.50;1.10;;;;;;;15.92;59.83;100093.17;104144;1277;138689;-72
2022/07/15 04:38:19;;;;;;;4.30;1.00;;;;;;;15.95;59.16;100096.96;104288;1277;109797;-72
2022/07/15 04:40:47;;;;;;;5.50;0.80;;;;;;;15.98;59.00;100098.23;104202;1277;99400;-72
2022/07/15 04:43:17;;;;;;;7.10;1.30;;;;;;;16.02;59.02;100098.38;104115;1278;138066;-72
2022/07/15 04:45:45;;;;;;;5.40;0.90;;;;;;;16.07;58.76;100100.44;104367;1276;96113;-72
2022/07/15 04:51:03;;;;;;;3.90;0.70;;;;;;;16.17;58.20;100101.52;104324;1277;109849;-72
2022/07/15 04:53:31;;;;;;;5.80;1.00;;;;;;;16.21;58.00;100099.66;104190;1277;138568;-75
2022/07/15 04:55:59;;;;;;;3.50;1.00;;;;;;;16.27;57.73;100099.17;104422;1277;108847;-73
2022/07/15 04:58:28;;;;;;;6.00;1.40;;;;;;;16.32;57.64;100101.58;104357;1277;95520;-73
2022/07/15 05:00:55;;;;;;;8.90;1.40;;;;;;;16.38;57.68;100106.83;104286;1277;138104;-72
2022/07/15 05:03:23;;;;;;;6.80;1.70;;;;;;;16.45;57.53;100118.05;104215;1277;109059;-73
2022/07/15 05:05:52;;;;;;;4.60;1.40;;;;;;;16.54;57.27;100123.85;104087;1277;138232;-73
2022/07/15 05:08:21;;;;;;;4.60;1.00;;;;;;;16.62;56.91;100120.53;104258;1277;109013;-73
2022/07/15 05:10:53;;;;;;;7.50;2.70;;;;;;;16.71;55.58;100124.16;104434;1277;95217;-72
2022/07/15 05:13:21;;;;;;;7.80;1.60;;;;;;;16.81;55.65;100121.64;104310;1277;137767;-72
2022/07/15 05:15:49;;;;;;;7.70;1.30;;;;;;;16.92;55.40;100127.32;104272;1277;108769;-73
2022/07/15 05:18:21;;;;;;;5.60;1.30;;;;;;;17.02;55.51;100127.44;104133;1280;138247;-74
2022/07/15 05:20:51;;;;;;;4.80;0.70;;;;;;;17.15;55.11;100130.87;104328;1275;107502;-73
2022/07/15 05:23:19;;;;;;;3.90;0.80;;;;;;;17.21;53.94;100134.25;104298;1277;138458;-72
2022/07/15 05:25:51;;;;;;;5.60;0.90;;;;;;;17.27;54.04;100134.06;104386;1277;95192;-72
2022/07/15 05:28:21;;;;;;;3.20;1.00;;;;;;;17.34;53.83;100140.71;104353;1275;109685;-72
2022/07/15 05:30:49;;;;;;;2.80;0.50;;;;;;;17.38;53.82;100138.84;104221;1277;138344;-73
2022/07/15 05:33:18;;;;;;;4.00;0.90;;;;;;;17.40;53.57;100140.52;104176;1277;108829;-74
2022/07/15 05:35:46;;;;;;;3.60;1.00;;;;;;;17.46;53.68;100145.73;104100;1277;138511;-73
2022/07/15 05:38:23;;;;;;;4.00;0.80;;;;;;;17.56;53.92;100148.20;104335;1277;95225;-73
2022/07/15 05:40:53;;;;;;;4.50;0.70;;;;;;;17.65;54.24;100150.36;104311;1277;109695;-72
2022/07/15 05:43:22;;;;;;;3.70;0.70;;;;;;;17.63;53.77;100157.30;104272;1277;138260;-73
2022/07/15 05:45:50;;;;;;;3.80;0.70;;;;;;;17.65;53.78;100156.64;104491;1277;108780;-73
2022/07/15 05:48:19;;;;;;;5.20;0.90;;;;;;;17.79;54.15;100160.30;104290;1274;138263;-72
2022/07/15 05:50:50;;;;;;;5.90;1.10;;;;;;;17.94;54.38;100162.48;104261;1277;95194;-73
2022/07/15 05:53:18;;;;;;;4.50;0.70;;;;;;;18.01;54.18;100161.69;104261;1277;138830;-74
2022/07/15 05:55:46;;;;;;;5.30;0.80;;;;;;;18.04;53.77;100164.54;104258;1275;99444;-72
2022/07/15 05:58:17;;;;;;;5.20;0.90;;;;;;;18.04;53.61;100170.10;104328;1276;108852;-73
2022/07/15 06:00:45;;;;;;;3.20;0.60;;;;;;;18.01;52.72;100171.58;104265;1277;138321;-72
2022/07/15 06:03:14;;;;;;;3.50;0.50;;;;;;;17.96;52.64;100174.02;104161;1276;95121;-72
2022/07/15 06:05:44;;;;;;;3.20;0.60;;;;;;;17.90;52.69;100178.67;104503;1276;138461;-71
2022/07/15 06:08:12;;;;;;;2.50;0.50;;;;;;;17.84;52.55;100180.61;104394;1277;99519;-71
2022/07/15 06:10:43;;;;;;;4.40;0.60;;;;;;;17.81;52.27;100182.78;104612;1277;108758;-72
2022/07/15 06:13:12;;;;;;;2.00;0.70;;;;;;;17.81;52.39;100191.03;104466;1277;138515;-71
2022/07/15 06:15:41;;;;;;;3.60;0.70;;;;;;;17.82;52.49;100196.19;104435;1277;95163;-71
2022/07/15 06:18:12;;;;;;;3.40;0.80;;;;;;;17.78;52.58;100196.29;104339;1275;138200;-71
2022/07/15 06:20:40;;;;;;;5.70;0.90;;;;;;;17.71;52.95;100203.13;104245;1277;97303;-71
2022/07/15 06:23:08;;;;;;;3.60;0.80;;;;;;;17.68;53.47;100204.95;104222;1277;139483;-72
2022/07/15 06:25:36;;;;;;;5.30;1.00;;;;;;;17.71;53.80;100207.45;104348;1277;95243;-71
2022/07/15 06:28:04;;;;;;;3.20;1.10;;;;;;;17.84;54.18;100206.67;104505;1277;95134;-71
2022/07/15 06:30:32;;;;;;;3.70;1.00;;;;;;;17.94;54.15;100206.16;104218;1277;138672;-71
2022/07/15 06:33:00;;;;;;;4.20;0.90;;;;;;;18.00;54.20;100203.27;104457;1277;98823;-72
2022/07/15 06:35:28;;;;;;;4.80;0.90;;;;;;;18.05;54.20;100207.07;104373;1277;138361;-71
2022/07/15 06:37:56;;;;;;;4.90;0.90;;;;;;;18.11;54.19;100207.09;104536;1274;95428;-70
2022/07/15 06:40:24;;;;;;;5.70;1.20;;;;;;;18.18;54.36;100211.16;104420;1277;95191;-72
2022/07/15 06:42:52;;;;;;;4.00;1.00;;;;;;;18.30;54.11;100215.61;104243;1277;138569;-71
2022/07/15 06:45:26;;;;;;;3.80;0.90;;;;;;;18.37;53.20;100210.48;104450;1277;98267;-71
2022/07/15 06:47:54;;;;;;;4.00;1.00;;;;;;;18.38;53.48;100210.63;104283;1277;138484;-71
2022/07/15 06:50:26;;;;;;;5.10;1.00;;;;;;;18.41;53.42;100215.71;104319;1277;95317;-71
2022/07/15 06:52:54;;;;;;;6.90;1.30;;;;;;;18.44;53.44;100214.06;104317;1280;95144;-71
2022/07/15 06:55:22;;;;;;;6.20;0.90;;;;;;;18.46;53.11;100219.66;104257;1278;138061;-72
2022/07/15 06:57:50;;;;;;;3.90;0.80;;;;;;;18.48;52.58;100222.80;104301;1277;98028;-71
2022/07/15 07:00:18;;;;;;;3.60;0.70;;;;;;;18.47;52.66;100224.27;104191;1280;138243;-71
2022/07/15 07:02:46;;;;;;;4.70;0.90;;;;;;;18.49;53.18;100225.75;104263;1278;95162;-73
2022/07/15 07:05:16;;;;;;;3.20;0.90;;;;;;;18.53;52.72;100225.00;104588;1277;138242;-71
2022/07/15 07:07:45;;;;;;;5.30;1.00;;;;;;;18.55;52.96;100225.58;104365;1277;109939;-71
2022/07/15 07:10:13;;;;;;;4.50;1.10;;;;;;;18.58;52.75;100226.99;104316;1277;99381;-70
2022/07/15 07:12:41;;;;;;;5.00;1.00;;;;;;;18.65;52.95;100225.89;104199;1278;138105;-71
2022/07/15 07:15:09;;;;;;;5.50;1.10;;;;;;;18.73;53.51;100223.55;104250;1279;95302;-71
2022/07/15 07:17:37;;;;;;;4.90;1.00;;;;;;;18.84;53.80;100217.30;104307;1277;138342;-71
2022/07/15 07:20:05;;;;;;;4.10;1.20;;;;;;;18.98;53.46;100219.30;104336;1276;109803;-71
2022/07/15 07:22:33;;;;;;;6.70;1.30;;;;;;;19.07;53.19;100222.67;104375;1277;100528;-71
2022/07/15 07:25:02;;;;;;;2.80;0.80;;;;;;;19.06;52.48;100218.27;104108;1277;138313;-71
2022/07/15 07:27:30;;;;;;;4.40;1.00;;;;;;;19.06;52.95;100223.30;104576;1277;95243;-70
2022/07/15 07:29:58;;;;;;;5.10;1.00;;;;;;;19.14;51.70;100229.45;104256;1277;138622;-70
2022/07/15 07:32:26;;;;;;;3.90;1.10;;;;;;;19.15;50.67;100234.27;104374;1277;109679;-71
2022/07/15 07:34:53;;;;;;;5.40;1.00;;;;;;;19.11;50.41;100229.83;104307;1277;99306;-71
2022/07/15 07:37:22;;;;;;;3.70;0.90;;;;;;;19.12;50.63;100239.50;104292;1277;138056;-70
2022/07/15 07:39:50;;;;;;;5.10;1.00;;;;;;;19.07;50.56;100243.60;104369;1277;95240;-70
2022/07/15 07:42:19;;;;;;;4.50;0.80;;;;;;;18.97;50.56;100239.20;104329;1277;138649;-70
2022/07/15 07:44:47;;;;;;;7.60;0.90;;;;;;;18.96;50.71;100248.98;104382;1277;110447;-71
2022/07/15 07:47:14;;;;;;;3.90;0.90;;;;;;;18.99;51.20;100246.42;104292;1277;138490;-71
2022/07/15 07:49:44;;;;;;;5.30;1.10;;;;;;;19.00;51.73;100248.16;104381;1277;108469;-71
2022/07/15 07:52:11;;;;;;;2.80;0.90;;;;;;;18.97;51.77;100260.96;104448;1277;95137;-71
2022/07/15 07:54:41;;;;;;;4.50;1.20;;;;;;;18.96;51.35;100266.44;104382;1277;138544;-69
2022/07/15 07:57:09;;;;;;;3.40;1.10;;;;;;;18.92;51.60;100262.52;104384;1277;109687;-71
2022/07/15 07:59:37;;;;;;;4.30;1.10;;;;;;;18.91;52.24;100261.16;104300;1277;138711;-71
2022/07/15 08:02:05;;;;;;;4.10;1.20;;;;;;;19.01;52.62;100264.12;104424;1277;108556;-70
2022/07/15 08:04:34;;;;;;;5.00;1.30;;;;;;;19.17;52.14;100262.89;104419;1277;95511;-70
2022/07/15 08:07:01;;;;;;;5.00;1.30;;;;;;;19.09;52.03;100268.82;104341;1277;139158;-71
2022/07/15 08:09:29;;;;;;;4.80;1.20;;;;;;;18.93;52.38;100269.67;104583;1277;109661;-71
2022/07/15 08:11:57;;;;;;;4.00;1.00;;;;;;;18.80;52.68;100272.23;104310;1277;138228;-71
2022/07/15 08:14:25;;;;;;;3.00;1.00;;;;;;;18.68;52.74;100278.77;104391;1278;108980;-71
2022/07/15 08:16:53;;;;;;;4.40;1.00;;;;;;;18.70;52.41;100273.05;104411;1276;95235;-70
2022/07/15 08:19:21;;;;;;;3.80;0.80;;;;;;;18.82;52.08;100271.55;104321;1277;137903;-71
2022/07/15 08:21:50;;;;;;;3.00;0.80;;;;;;;18.96;51.72;100275.05;104490;1277;109793;-73
2022/07/15 08:24:18;;;;;;;2.50;0.80;;;;;;;19.09;49.82;100279.77;104307;1278;138621;-70
2022/07/15 08:26:46;;;;;;;3.80;0.60;;;;;;;19.20;49.45;100271.52;104344;1277;107760;-70
2022/07/15 08:29:14;;;;;;;2.50;0.60;;;;;;;19.30;49.02;100275.58;104344;1278;138831;-71
2022/07/15 08:31:42;;;;;;;3.30;0.70;;;;;;;19.35;48.59;100268.42;104398;1277;95352;-70
2022/07/15 08:34:10;;;;;;;3.40;0.70;;;;;;;19.54;48.12;100275.47;104480;1278;109656;-70
2022/07/15 08:36:38;;;;;;;3.60;0.60;;;;;;;19.70;47.05;100272.78;104339;1277;138316;-71
2022/07/15 08:39:06;;;;;;;2.90;0.80;;;;;;;19.64;46.84;100273.73;104447;1277;108834;-71
2022/07/15 08:41:36;;;;;;;4.30;0.70;;;;;;;19.59;46.40;100281.58;104375;1277;139609;-72
2022/07/15 08:44:05;;;;;;;3.70;0.80;;;;;;;19.74;46.50;100275.02;104574;1277;95305;-70
2022/07/15 08:46:35;;;;;;;4.90;0.90;;;;;;;19.92;44.89;100278.21;104449;1276;109250;-71
2022/07/15 08:49:12;;;;;;;4.70;0.60;;;;;;;20.07;44.86;100277.76;104344;1278;138245;-72
2022/07/15 08:51:43;;;;;;;5.10;0.50;;;;;;;20.18;44.69;100279.66;104405;1278;108802;-71
2022/07/15 08:54:12;;;;;;;3.50;0.60;;;;;;;20.25;44.64;100283.55;104423;1278;138926;-71
2022/07/15 09:00:17;;;;;;;5.00;0.80;;;;;;;20.35;42.46;100283.02;98663;1269;140135;-81
2022/07/15 09:02:46;;;;;;;3.30;0.70;;;;;;;20.50;42.35;100283.59;105134;1278;181434;-79
2022/07/15 09:05:32;;;;;;;3.30;0.70;;;;;;;20.61;42.67;100280.16;105409;1278;140953;-80
2022/07/15 09:08:10;;;;;;;4.70;0.80;;;;;;;20.81;41.85;100280.73;105467;1278;95146;-81
2022/07/15 09:10:57;;;;;;;3.90;0.90;;;;;;;20.97;41.62;100283.39;105225;1279;95157;-78
2022/07/15 09:13:33;;;;;;;3.40;0.70;;;;;;;21.32;41.76;100277.08;104532;1277;109193;-79
2022/07/15 09:16:08;;;;;;;3.40;0.90;;;;;;;21.67;40.39;100281.80;105191;1278;98418;-80
2022/07/15 09:18:42;;;;;;;3.70;0.80;;;;;;;21.90;39.98;100272.66;104994;1279;139884;-80
2022/07/15 09:21:15;;;;;;;4.00;0.90;;;;;;;22.10;38.90;100277.69;105330;1277;95526;-80
2022/07/15 09:23:44;;;;;;;4.20;0.60;;;;;;;22.10;39.51;100287.05;105125;1277;140884;-81
2022/07/15 09:26:30;;;;;;;4.80;1.00;;;;;;;22.02;40.15;100287.98;105292;1277;109790;-81
2022/07/15 09:28:59;;;;;;;3.00;0.70;;;;;;;21.78;39.31;100286.23;105220;1278;97402;-79
2022/07/15 09:34:19;;;;;;;4.20;0.80;;;;;;;21.63;39.32;100296.52;105022;1278;95670;-80
2022/07/15 09:36:54;;;;;;;6.80;0.80;;;;;;;22.41;37.47;100296.29;105409;1277;138346;-80
2022/07/15 09:39:24;;;;;;;5.10;0.70;;;;;;;22.59;36.93;100293.05;105328;1277;108576;-78
2022/07/15 09:41:53;;;;;;;3.70;0.90;;;;;;;23.41;35.02;100294.72;104550;1278;140178;-79
2022/07/15 09:44:33;;;;;;;4.30;0.90;;;;;;;23.98;34.50;100294.56;105480;1277;108269;-81
2022/07/15 09:47:03;;;;;;;5.00;0.80;;;;;;;23.73;35.15;100294.04;105425;1277;138890;-81
2022/07/15 09:49:33;;;;;;;6.30;0.90;;;;;;;23.36;35.99;100302.58;105320;1277;94413;-80
2022/07/15 09:52:07;;;;;;;6.60;1.00;;;;;;;23.70;35.42;100303.17;105419;1278;109101;-81
2022/07/15 09:54:41;;;;;;;4.30;1.00;;;;;;;25.08;33.32;100298.77;105180;1278;141381;-80
2022/07/15 09:57:14;;;;;;;3.20;0.60;;;;;;;26.40;31.16;100296.68;105332;1278;109406;-81
2022/07/15 09:59:48;;;;;;;3.10;0.60;;;;;;;27.60;29.52;100294.06;105285;1277;140156;-80
2022/07/15 10:02:17;;;;;;;3.30;0.70;;;;;;;28.56;27.59;100288.20;105491;1278;95217;-81
2022/07/15 10:04:46;;;;;;;3.10;0.70;;;;;;;28.83;27.38;100290.28;105565;1278;110923;-81
2022/07/15 10:07:17;;;;;;;4.00;0.70;;;;;;;28.13;27.14;100298.27;105762;1277;139970;-79
2022/07/15 10:09:58;;;;;;;3.10;0.60;;;;;;;26.94;28.09;100303.22;105625;1278;108952;-79
2022/07/15 10:12:53;;;;;;;5.40;0.70;;;;;;;26.01;29.15;100308.70;105541;1278;138188;-79
2022/07/15 10:15:39;;;;;;;3.70;0.60;;;;;;;25.30;30.15;100316.22;105415;1279;95797;-78
2022/07/15 10:18:28;;;;;;;4.40;0.60;;;;;;;24.69;30.85;100319.94;105248;1277;138675;-82
2022/07/15 10:21:02;;;;;;;4.80;0.90;;;;;;;24.05;31.37;100322.97;105344;1278;98874;-80
2022/07/15 10:23:34;;;;;;;3.90;0.60;;;;;;;24.60;31.52;100312.50;105264;1277;138516;-80
2022/07/15 10:26:08;;;;;;;3.50;0.60;;;;;;;25.92;29.27;100311.58;105824;1277;95632;-79
2022/07/15 10:28:54;;;;;;;3.00;0.60;;;;;;;27.17;28.05;100309.36;106584;1277;95233;-79
2022/07/15 10:31:27;;;;;;;5.70;1.10;;;;;;;27.52;27.05;100306.73;104854;1277;138286;-79
2022/07/15 10:34:02;;;;;;;3.70;0.60;;;;;;;26.55;28.44;100307.50;104742;1280;99889;-79
2022/07/15 10:36:52;;;;;;;4.40;0.70;;;;;;;25.79;30.12;100312.00;104530;1280;138765;-80
2022/07/15 10:39:24;;;;;;;6.00;0.80;;;;;;;24.91;30.60;100318.41;105349;1277;95136;-80
2022/07/15 10:41:57;;;;;;;5.20;0.90;;;;;;;24.32;31.98;100322.88;105343;1277;139678;-82
2022/07/15 10:44:32;;;;;;;4.80;0.70;;;;;;;23.97;32.32;100324.23;105280;1278;110241;-78
2022/07/15 10:47:12;;;;;;;3.50;0.70;;;;;;;23.50;33.06;100319.36;105052;1278;139057;-78
2022/07/15 10:49:46;;;;;;;4.70;0.90;;;;;;;23.22;33.88;100324.67;105162;1278;107972;-79
2022/07/15 10:52:22;;;;;;;5.00;0.90;;;;;;;23.07;34.02;100329.10;105282;1278;95529;-78
2022/07/15 10:54:57;;;;;;;6.50;0.90;;;;;;;23.36;34.01;100331.68;105143;1280;139613;-79
2022/07/15 10:57:41;;;;;;;4.40;0.70;;;;;;;23.18;34.12;100328.23;104585;1278;110958;-79
2022/07/15 11:00:15;;;;;;;3.30;0.60;;;;;;;23.58;33.58;100329.52;105133;1278;140118;-79
2022/07/15 11:03:12;;;;;;;4.00;0.70;;;;;;;23.67;33.04;100326.65;104648;1279;108805;-79
2022/07/15 11:05:45;;;;;;;4.20;0.60;;;;;;;23.70;33.67;100330.92;105251;1277;139814;-79
2022/07/15 11:08:31;;;;;;;3.90;0.80;;;;;;;23.62;33.47;100331.63;105480;1278;95222;-80
2022/07/15 11:11:14;;;;;;;3.50;0.80;;;;;;;23.19;34.04;100335.60;105267;1277;110253;-82
2022/07/15 11:13:47;;;;;;;4.60;0.90;;;;;;;22.92;34.61;100337.41;105152;1277;99044;-79
2022/07/15 11:16:20;;;;;;;5.80;1.00;;;;;;;22.59;34.80;100338.50;105235;1277;107232;-80
2022/07/15 11:18:57;;;;;;;6.20;1.00;;;;;;;22.44;36.23;100342.16;105078;1278;141108;-81
2022/07/15 11:21:26;;;;;;;4.60;0.70;;;;;;;22.58;36.52;100341.29;105324;1277;96085;-80
2022/07/15 11:23:54;;;;;;;4.10;0.80;;;;;;;22.69;35.74;100336.26;105276;1278;140257;-80
2022/07/15 11:26:22;;;;;;;6.80;1.00;;;;;;;22.67;34.96;100330.64;105328;1278;100491;-82
2022/07/15 11:28:57;;;;;;;4.80;0.80;;;;;;;22.66;35.71;100339.02;105368;1278;107783;-79
2022/07/15 11:31:25;;;;;;;4.90;0.80;;;;;;;22.63;35.32;100337.67;105297;1279;95236;-81
2022/07/15 11:33:55;;;;;;;5.10;0.90;;;;;;;22.58;35.03;100340.42;105176;1279;95203;-80
2022/07/15 11:36:24;;;;;;;4.60;0.70;;;;;;;22.43;35.37;100339.00;105022;1280;138552;-82
2022/07/15 11:38:52;;;;;;;4.60;0.90;;;;;;;22.36;35.67;100336.00;104997;1278;98360;-80